createdAt,value
2022-09-30T01:15:54.972Z,7.20
2022-09-30T01:18:49.188Z,7.20
2022-09-30T01:21:50.365Z,7.20
2022-09-30T01:24:38.564Z,7.10
2022-09-30T01:27:24.677Z,7.10
2022-09-30T01:30:05.763Z,7.10
2022-09-30T01:32:41.578Z,7.10
2022-09-30T01:35:37.028Z,7.10
2022-09-30T01:38:31.431Z,7.10
2022-09-30T01:41:10.717Z,7.10
2022-09-30T01:43:37.434Z,7.00
2022-09-30T01:46:50.441Z,7.10
2022-09-30T01:49:27.304Z,7.00
2022-09-30T01:52:08.462Z,7.00
2022-09-30T01:54:53.858Z,7.00
2022-09-30T01:57:42.580Z,7.00
2022-09-30T02:00:11.842Z,7.00
2022-09-30T02:02:59.418Z,7.00
2022-09-30T02:05:36.637Z,6.90
2022-09-30T02:08:13.420Z,6.90
2022-09-30T02:10:49.479Z,6.90
2022-09-30T02:13:25.485Z,6.90
2022-09-30T02:15:57.112Z,6.90
2022-09-30T02:18:34.917Z,6.90
2022-09-30T02:21:04.922Z,6.80
2022-09-30T02:23:35.400Z,6.80
2022-09-30T02:26:10.388Z,6.90
2022-09-30T02:28:44.253Z,6.80
2022-09-30T02:31:15.247Z,6.80
2022-09-30T02:33:47.771Z,6.70
2022-09-30T02:36:33.723Z,6.70
2022-09-30T02:39:07.634Z,6.70
2022-09-30T02:41:52.420Z,6.70
2022-09-30T02:44:19.886Z,6.70
2022-09-30T02:47:13.919Z,6.70
2022-09-30T02:49:52.051Z,6.70
2022-09-30T02:52:27.787Z,6.60
2022-09-30T02:55:13.860Z,6.70
2022-09-30T02:58:04.860Z,6.60
2022-09-30T03:00:32.159Z,6.60
2022-09-30T03:03:20.095Z,6.60
2022-09-30T03:05:48.698Z,6.60
2022-09-30T03:08:16.278Z,6.60
2022-09-30T03:10:44.240Z,6.60
2022-09-30T03:13:30.486Z,6.60
2022-09-30T03:16:27.985Z,6.60
2022-09-30T03:19:24.040Z,6.50
2022-09-30T03:22:05.886Z,6.50
2022-09-30T03:24:47.667Z,6.50
2022-09-30T03:27:33.203Z,6.50
2022-09-30T03:30:18.501Z,6.50
2022-09-30T03:33:15.983Z,6.50
2022-09-30T03:36:07.837Z,6.60
2022-09-30T03:38:51.685Z,6.50
2022-09-30T03:41:30.811Z,6.50
2022-09-30T03:44:29.487Z,6.50
2022-09-30T03:47:07.765Z,6.50
2022-09-30T03:49:41.913Z,6.40
2022-09-30T03:52:12.490Z,6.40
2022-09-30T03:54:55.540Z,6.40
2022-09-30T03:57:22.619Z,6.40
2022-09-30T03:59:49.417Z,6.40
2022-09-30T04:02:16.360Z,6.40
2022-09-30T04:04:43.214Z,6.40
2022-09-30T04:07:10.570Z,6.40
2022-09-30T04:09:41.090Z,6.40
2022-09-30T04:12:08.532Z,6.40
2022-09-30T04:14:35.836Z,6.30
2022-09-30T04:17:06.436Z,6.40
2022-09-30T04:19:38.104Z,6.40
2022-09-30T04:22:04.935Z,6.40
2022-09-30T04:24:32.214Z,6.40
2022-09-30T04:26:59.142Z,6.30
2022-09-30T04:29:25.910Z,6.30
2022-09-30T04:31:52.801Z,6.20
2022-09-30T04:34:19.689Z,6.20
2022-09-30T04:36:46.594Z,6.20
2022-09-30T04:39:13.346Z,6.20
2022-09-30T04:41:40.827Z,6.10
2022-09-30T04:44:07.596Z,6.20
2022-09-30T04:46:36.844Z,6.10
2022-09-30T04:49:08.741Z,6.20
2022-09-30T04:51:36.528Z,6.20
2022-09-30T04:54:03.512Z,6.20
2022-09-30T04:56:30.382Z,6.20
2022-09-30T04:58:57.415Z,6.20
2022-09-30T05:01:24.358Z,6.20
2022-09-30T05:03:51.189Z,6.20
2022-09-30T05:06:18.283Z,6.20
2022-09-30T05:08:46.282Z,6.10
2022-09-30T05:11:21.118Z,6.20
2022-09-30T05:13:48.884Z,6.10
2022-09-30T05:16:17.197Z,6.10
2022-09-30T05:18:46.423Z,6.20
2022-09-30T05:21:15.528Z,6.20
2022-09-30T05:23:42.357Z,6.10
2022-09-30T05:26:12.207Z,6.30
2022-09-30T05:28:40.902Z,6.00
2022-09-30T05:31:08.185Z,6.20
2022-09-30T05:33:36.036Z,6.10
2022-09-30T05:36:06.887Z,6.30
2022-09-30T05:38:34.067Z,6.20
2022-09-30T05:41:11.411Z,6.10
2022-09-30T05:43:45.431Z,6.10
2022-09-30T05:46:12.658Z,6.10
2022-09-30T05:48:39.564Z,6.10
2022-09-30T05:51:07.572Z,6.10
2022-09-30T05:53:38.658Z,6.10
2022-09-30T05:56:06.958Z,6.10
2022-09-30T05:58:34.310Z,6.10
2022-09-30T06:01:13.406Z,6.20
2022-09-30T06:03:41.996Z,6.10
2022-09-30T06:06:08.843Z,6.00
2022-09-30T06:08:35.947Z,6.00
2022-09-30T06:11:11.982Z,6.00
2022-09-30T06:13:40.184Z,6.00
2022-09-30T06:16:08.202Z,6.00
2022-09-30T06:18:35.934Z,6.30
2022-09-30T06:21:05.005Z,6.40
2022-09-30T06:23:35.130Z,6.40
2022-09-30T06:26:04.033Z,6.30
2022-09-30T06:28:31.040Z,6.30
2022-09-30T06:30:57.792Z,6.30
2022-09-30T06:33:24.603Z,6.30
2022-09-30T06:35:51.402Z,6.30
2022-09-30T06:38:18.498Z,6.30
2022-09-30T06:40:49.730Z,6.40
2022-09-30T06:43:19.903Z,6.40
2022-09-30T06:45:48.225Z,6.50
2022-09-30T06:48:17.403Z,6.70
2022-09-30T06:50:59.443Z,6.80
2022-09-30T06:53:27.849Z,6.90
2022-09-30T06:55:58.298Z,6.80
2022-09-30T06:58:25.646Z,6.70
2022-09-30T07:01:06.477Z,6.90
2022-09-30T07:03:35.374Z,7.00
2022-09-30T07:06:05.032Z,6.90
2022-09-30T07:08:34.380Z,7.00
2022-09-30T07:11:16.941Z,7.10
2022-09-30T07:13:45.969Z,7.10
2022-09-30T07:16:18.441Z,7.30
2022-09-30T07:18:46.182Z,7.30
2022-09-30T07:21:16.205Z,7.80
2022-09-30T07:23:49.651Z,7.80
2022-09-30T07:26:18.783Z,8.00
2022-09-30T07:28:45.790Z,8.00
2022-09-30T07:31:32.387Z,8.10
2022-09-30T07:33:59.636Z,8.10
2022-09-30T07:36:32.730Z,8.20
2022-09-30T07:39:08.463Z,8.10
2022-09-30T07:41:37.861Z,8.20
2022-09-30T07:44:06.582Z,8.30
2022-09-30T07:46:35.490Z,8.40
2022-09-30T07:49:05.552Z,8.30
2022-09-30T07:51:35.671Z,8.40
2022-09-30T07:54:14.658Z,8.40
2022-09-30T07:57:10.285Z,8.60
2022-09-30T07:59:32.163Z,8.60
2022-09-30T08:01:59.373Z,8.70
2022-09-30T08:04:27.500Z,8.50
2022-09-30T08:07:00.281Z,8.50
2022-09-30T08:09:29.858Z,8.80
2022-09-30T08:11:57.340Z,8.60
2022-09-30T08:14:26.253Z,8.60
2022-09-30T08:16:54.138Z,8.60
2022-09-30T08:19:23.165Z,8.70
2022-09-30T08:21:51.373Z,8.70
2022-09-30T08:24:18.287Z,8.80
2022-09-30T08:26:45.208Z,8.70
2022-09-30T08:29:20.055Z,8.70
2022-09-30T08:31:52.804Z,8.60
2022-09-30T08:34:19.895Z,8.80
2022-09-30T08:36:46.799Z,8.70
2022-09-30T08:39:13.751Z,8.70
2022-09-30T08:41:59.763Z,8.70
2022-09-30T08:44:45.451Z,8.70
2022-09-30T08:47:36.906Z,8.60
2022-09-30T08:50:19.891Z,8.50
2022-09-30T08:52:55.158Z,8.50
2022-09-30T08:55:31.458Z,8.40
2022-09-30T08:57:58.540Z,8.40
2022-09-30T09:00:25.944Z,8.40
2022-09-30T09:02:56.960Z,8.60
2022-09-30T09:06:10.974Z,8.70
2022-09-30T09:08:49.211Z,8.90
2022-09-30T09:11:24.364Z,8.80
2022-09-30T09:14:06.036Z,8.90
2022-09-30T09:16:45.628Z,8.70
2022-09-30T09:19:28.738Z,8.60
2022-09-30T09:21:57.260Z,8.70
2022-09-30T09:24:26.562Z,8.80
2022-09-30T09:26:56.806Z,8.90
2022-09-30T09:29:39.041Z,9.30
2022-09-30T09:32:17.721Z,9.20
2022-09-30T09:34:46.927Z,9.30
2022-09-30T09:37:53.428Z,9.40
2022-09-30T09:40:45.795Z,9.40
2022-09-30T09:43:30.517Z,9.60
2022-09-30T09:46:30.840Z,9.30
2022-09-30T09:49:22.136Z,9.10
2022-09-30T09:52:13.403Z,9.10
2022-09-30T09:54:45.737Z,9.00
2022-09-30T09:57:15.828Z,9.20
2022-09-30T10:00:29.110Z,9.40
2022-09-30T10:03:04.425Z,9.40
2022-09-30T10:05:39.622Z,9.40
2022-09-30T10:08:20.114Z,9.40
2022-09-30T10:10:48.530Z,9.60
2022-09-30T10:13:18.040Z,9.50
2022-09-30T10:15:45.335Z,9.50
2022-09-30T10:18:25.861Z,9.50
2022-09-30T10:20:59.106Z,9.60
2022-09-30T10:23:32.357Z,9.70
2022-09-30T10:26:03.798Z,9.70
2022-09-30T10:28:34.906Z,9.80
2022-09-30T10:31:32.224Z,9.90
2022-09-30T10:34:14.218Z,10.10
2022-09-30T10:36:43.463Z,9.90
2022-09-30T10:39:26.838Z,10.10
2022-09-30T10:42:11.934Z,10.00
2022-09-30T10:44:53.145Z,10.00
2022-09-30T10:47:23.223Z,9.70
2022-09-30T10:49:58.463Z,9.90
2022-09-30T10:52:32.377Z,10.10
2022-09-30T10:55:00.883Z,10.10
2022-09-30T10:57:37.835Z,10.50
2022-09-30T11:00:13.817Z,10.50
2022-09-30T11:02:55.583Z,10.70
2022-09-30T11:05:29.872Z,10.60
2022-09-30T11:08:05.359Z,10.40
2022-09-30T11:10:42.869Z,10.30
2022-09-30T11:13:18.677Z,10.50
2022-09-30T11:16:09.780Z,10.40
2022-09-30T11:19:28.913Z,10.30
2022-09-30T11:22:17.030Z,10.10
2022-09-30T11:24:48.075Z,10.10
2022-09-30T11:27:28.487Z,10.10
2022-09-30T11:30:26.449Z,10.40
2022-09-30T11:33:30.744Z,10.70
2022-09-30T11:36:26.140Z,10.80
2022-09-30T11:39:32.180Z,10.70
2022-09-30T11:42:18.542Z,10.50
2022-09-30T11:44:49.005Z,10.60
2022-09-30T11:47:34.659Z,10.60
2022-09-30T11:50:27.845Z,10.80
2022-09-30T11:53:11.212Z,10.60
2022-09-30T11:55:57.715Z,10.80
2022-09-30T11:58:41.338Z,10.90
2022-09-30T12:01:36.998Z,11.00
2022-09-30T12:04:21.275Z,11.10
2022-09-30T12:06:58.544Z,11.10
2022-09-30T12:09:40.831Z,11.00
2022-09-30T12:12:16.731Z,11.10
2022-09-30T12:15:17.747Z,11.10
2022-09-30T12:18:13.403Z,11.10
2022-09-30T12:20:43.216Z,11.40
2022-09-30T12:23:17.741Z,11.40
2022-09-30T12:25:55.966Z,11.30
2022-09-30T12:28:54.024Z,11.50
2022-09-30T12:31:37.823Z,11.50
2022-09-30T12:34:37.052Z,11.60
2022-09-30T12:37:46.983Z,11.50
2022-09-30T12:40:35.351Z,11.70
2022-09-30T12:43:36.163Z,11.70
2022-09-30T12:46:32.517Z,11.80
2022-09-30T12:49:06.466Z,11.80
2022-09-30T12:51:35.139Z,11.90
2022-09-30T12:54:22.022Z,12.00
2022-09-30T12:56:56.031Z,12.00
2022-09-30T12:59:30.510Z,12.00
2022-09-30T13:01:58.497Z,11.90
2022-09-30T13:04:37.781Z,12.00
2022-09-30T13:07:06.749Z,11.90
2022-09-30T13:09:55.349Z,11.90
2022-09-30T13:12:40.595Z,11.90
2022-09-30T13:15:43.813Z,12.10
2022-09-30T13:18:26.653Z,12.20
2022-09-30T13:20:56.613Z,12.20
2022-09-30T13:23:46.845Z,12.30
2022-09-30T13:26:22.977Z,12.30
2022-09-30T13:28:51.295Z,12.30
2022-09-30T13:31:28.558Z,12.20
2022-09-30T13:34:01.507Z,12.30
2022-09-30T13:36:38.384Z,12.30
2022-09-30T13:39:26.558Z,12.00
2022-09-30T13:42:06.955Z,12.10
2022-09-30T13:45:01.800Z,12.00
2022-09-30T13:47:36.135Z,12.20
2022-09-30T13:50:26.973Z,12.00
2022-09-30T13:52:59.180Z,12.20
2022-09-30T13:55:27.774Z,12.20
2022-09-30T13:58:34.707Z,12.30
2022-09-30T14:01:34.866Z,12.20
2022-09-30T14:04:18.769Z,12.20
2022-09-30T14:07:20.919Z,12.30
2022-09-30T14:09:47.734Z,12.50
2022-09-30T14:12:37.406Z,13.20
2022-09-30T14:15:35.253Z,13.30
2022-09-30T14:18:11.159Z,13.30
2022-09-30T14:20:41.887Z,13.40
2022-09-30T14:23:16.955Z,13.60
2022-09-30T14:26:13.243Z,13.40
2022-09-30T14:28:47.541Z,13.50
2022-09-30T14:31:15.706Z,13.40
2022-09-30T14:33:47.164Z,13.30
2022-09-30T14:36:17.594Z,13.20
2022-09-30T14:38:47.310Z,13.10
2022-09-30T14:41:22.201Z,12.90
2022-09-30T14:43:54.436Z,12.90
2022-09-30T14:46:27.015Z,13.10
2022-09-30T14:48:56.617Z,13.10
2022-09-30T14:51:24.098Z,13.20
2022-09-30T14:54:02.509Z,13.00
2022-09-30T14:56:35.474Z,13.10
2022-09-30T14:59:24.824Z,13.10
2022-09-30T15:01:55.822Z,13.20
2022-09-30T15:04:33.823Z,13.20
2022-09-30T15:07:03.468Z,13.10
2022-09-30T15:09:37.558Z,13.50
2022-09-30T15:12:06.878Z,13.40
2022-09-30T15:14:33.837Z,13.30
2022-09-30T15:17:05.902Z,13.40
2022-09-30T15:19:34.956Z,13.30
2022-09-30T15:22:09.421Z,13.20
2022-09-30T15:24:37.494Z,13.10
2022-09-30T15:27:04.892Z,13.20
2022-09-30T15:29:31.682Z,13.10
2022-09-30T15:32:21.285Z,13.10
2022-09-30T15:34:48.623Z,13.00
2022-09-30T15:37:22.860Z,13.00
2022-09-30T15:40:09.282Z,12.90
2022-09-30T15:42:39.531Z,13.00
2022-09-30T15:45:35.810Z,12.90
2022-09-30T15:48:27.695Z,12.80
2022-09-30T15:50:57.211Z,12.70
2022-09-30T15:53:32.439Z,12.60
2022-09-30T15:56:19.482Z,12.60
2022-09-30T15:59:07.682Z,12.50
2022-09-30T16:01:44.000Z,12.60
2022-09-30T16:04:15.585Z,12.50
2022-09-30T16:07:07.723Z,12.40
2022-09-30T16:09:37.477Z,12.40
2022-09-30T16:12:19.159Z,12.30
2022-09-30T16:15:06.353Z,12.20
2022-09-30T16:17:35.191Z,12.30
2022-09-30T16:20:15.735Z,12.20
2022-09-30T16:22:45.161Z,12.20
2022-09-30T16:25:26.479Z,12.40
2022-09-30T16:28:01.120Z,12.50
2022-09-30T16:30:33.462Z,12.40
2022-09-30T16:33:04.964Z,12.20
2022-09-30T16:35:35.886Z,12.10
2022-09-30T16:38:06.126Z,12.10
2022-09-30T16:40:39.246Z,12.00
2022-09-30T16:43:09.247Z,11.80
2022-09-30T16:45:40.063Z,11.70
2022-09-30T16:48:15.222Z,11.70
2022-09-30T16:50:48.098Z,11.80
2022-09-30T16:53:21.890Z,11.70
2022-09-30T16:55:48.757Z,11.50
2022-09-30T16:58:15.843Z,11.40
2022-09-30T17:00:44.674Z,11.20
2022-09-30T17:03:16.519Z,11.10
2022-09-30T17:05:45.017Z,11.20
2022-09-30T17:08:14.045Z,10.90
2022-09-30T17:10:43.066Z,10.80
2022-09-30T17:13:10.097Z,10.80
2022-09-30T17:15:37.403Z,10.80
2022-09-30T17:18:07.349Z,10.70
2022-09-30T17:20:35.204Z,10.70
2022-09-30T17:23:06.974Z,10.80
2022-09-30T17:25:34.960Z,10.70
2022-09-30T17:28:01.902Z,10.90
2022-09-30T17:30:28.856Z,10.90
2022-09-30T17:32:55.586Z,10.70
2022-09-30T17:35:22.594Z,10.50
2022-09-30T17:37:49.743Z,10.60
2022-09-30T17:40:35.388Z,10.50
2022-09-30T17:43:07.976Z,10.60
2022-09-30T17:45:35.652Z,10.70
2022-09-30T17:48:02.845Z,10.50
2022-09-30T17:50:33.944Z,10.40
2022-09-30T17:53:02.460Z,10.40
2022-09-30T17:55:35.446Z,10.50
2022-09-30T17:58:05.147Z,10.50
2022-09-30T18:00:32.205Z,10.50
2022-09-30T18:02:59.433Z,10.70
2022-09-30T18:05:27.217Z,10.50
2022-09-30T18:07:54.362Z,10.30
2022-09-30T18:10:21.447Z,10.40
2022-09-30T18:12:49.425Z,10.30
2022-09-30T18:15:16.962Z,10.30
2022-09-30T18:17:44.144Z,10.20
2022-09-30T18:20:11.425Z,10.30
2022-09-30T18:22:38.302Z,10.30
2022-09-30T18:25:20.818Z,10.30
2022-09-30T18:27:57.313Z,10.20
2022-09-30T18:30:25.126Z,10.30
2022-09-30T18:32:53.758Z,10.30
2022-09-30T18:35:24.357Z,10.00
2022-09-30T18:37:52.869Z,10.00
2022-09-30T18:40:25.954Z,10.10
2022-09-30T18:43:02.479Z,10.00
2022-09-30T18:45:31.903Z,10.10
2022-09-30T18:48:00.209Z,10.00
2022-09-30T18:50:29.924Z,10.00
2022-09-30T18:52:58.096Z,10.30
2022-09-30T18:55:25.070Z,10.30
2022-09-30T18:57:55.530Z,10.10
2022-09-30T19:00:25.779Z,10.10
2022-09-30T19:02:55.371Z,10.00
2022-09-30T19:08:03.105Z,9.90
2022-09-30T19:10:39.193Z,9.80
2022-09-30T19:13:09.234Z,9.80
2022-09-30T19:15:41.814Z,10.00
2022-09-30T19:18:11.749Z,10.00
2022-09-30T19:20:45.429Z,10.00
2022-09-30T19:23:12.378Z,9.90
2022-09-30T19:25:45.190Z,9.90
2022-09-30T19:28:12.472Z,10.00
2022-09-30T19:30:44.466Z,9.80
2022-09-30T19:33:11.525Z,9.80
2022-09-30T19:35:40.984Z,9.70
2022-09-30T19:38:08.498Z,9.70
2022-09-30T19:40:35.490Z,9.50
2022-09-30T19:43:02.412Z,9.50
2022-09-30T19:45:40.930Z,9.50
2022-09-30T19:48:12.233Z,9.50
2022-09-30T19:50:42.321Z,9.50
2022-09-30T19:53:09.870Z,9.40
2022-09-30T19:55:50.967Z,9.50
2022-09-30T19:58:20.202Z,9.50
2022-09-30T20:00:54.578Z,9.30
2022-09-30T20:03:22.503Z,9.30
2022-09-30T20:05:53.127Z,9.30
2022-09-30T20:08:22.582Z,9.20
2022-09-30T20:10:49.781Z,9.20
2022-09-30T20:13:16.656Z,9.20
2022-09-30T20:15:52.475Z,9.20
2022-09-30T20:18:20.549Z,9.10
2022-09-30T20:20:48.540Z,9.10
2022-09-30T20:23:17.731Z,9.10
2022-09-30T20:25:49.696Z,9.10
2022-09-30T20:28:25.519Z,9.00
